Time;durP1;ratioP1;P1;durP2;ratioP2;P2;SDS_P1;SDS_P2;PMS_P1;PMS_P2;Temp;Humidity;BMP_temperature;BMP_pressure;BME280_temperature;BME280_humidity;BME280_pressure;Samples;Min_cycle;Max_cycle;Signal;HPM_P1;HPM_P2
2022/01/26 00:06:02;;;;;;;126.60;59.30;;;;;;;1.43;100.00;103200.56;5070575;28;20127;-71
2022/01/26 00:08:27;;;;;;;128.80;63.60;;;;;;;1.41;100.00;103203.06;5072424;28;20086;-71
2022/01/26 00:10:53;;;;;;;131.45;63.47;;;;;;;1.38;100.00;103202.81;5072365;28;20032;-69
2022/01/26 00:13:18;;;;;;;132.20;65.32;;;;;;;1.37;100.00;103199.31;5072296;28;20032;-71
2022/01/26 00:15:44;;;;;;;125.05;60.17;;;;;;;1.40;100.00;103201.25;5072518;28;20020;-70
2022/01/26 00:18:09;;;;;;;129.57;63.00;;;;;;;1.38;100.00;103203.75;5072015;28;20452;-69
2022/01/26 00:20:50;;;;;;;134.35;62.47;;;;;;;1.37;100.00;103201.91;5071986;28;20388;-71
2022/01/26 00:26:02;;;;;;;126.78;60.95;;;;;;;1.41;100.00;103199.56;5071978;28;20076;-71
2022/01/26 00:28:35;;;;;;;126.22;59.58;;;;;;;1.40;100.00;103196.06;5070910;28;20020;-70
2022/01/26 00:32:00;;;;;;;124.40;58.85;;;;;;;1.39;100.00;103195.13;5071745;28;20439;-71
2022/01/26 00:39:26;;;;;;;132.93;62.60;;;;;;;1.32;100.00;103192.81;5075689;28;20043;-69
2022/01/26 00:41:55;;;;;;;129.00;60.38;;;;;;;1.32;100.00;103185.00;5075343;28;20380;-71
2022/01/26 00:44:21;;;;;;;131.02;61.55;;;;;;;1.30;100.00;103194.41;5075650;28;20032;-71
2022/01/26 00:46:48;;;;;;;130.15;60.50;;;;;;;1.29;100.00;103184.75;5075773;28;20052;-70
2022/01/26 00:49:16;;;;;;;126.97;58.40;;;;;;;1.32;100.00;103186.69;5075304;28;20380;-70
2022/01/26 00:51:42;;;;;;;135.52;63.25;;;;;;;1.29;100.00;103186.47;5075128;28;20024;-70
2022/01/26 00:54:08;;;;;;;135.55;62.42;;;;;;;1.29;100.00;103186.47;5071245;28;20035;-71
2022/01/26 00:56:34;;;;;;;135.02;62.90;;;;;;;1.26;100.00;103191.44;5075426;28;20107;-68
2022/01/26 00:58:59;;;;;;;130.10;62.25;;;;;;;1.28;100.00;103196.00;5075053;28;20111;-68
2022/01/26 01:01:25;;;;;;;133.55;62.22;;;;;;;1.28;100.00;103180.34;5075598;28;20028;-68
2022/01/26 01:03:51;;;;;;;133.27;62.00;;;;;;;1.28;100.00;103180.34;5075092;28;20123;-68
2022/01/26 01:08:48;;;;;;;134.05;64.72;;;;;;;1.29;100.00;103187.38;5075361;28;20043;-68
2022/01/26 01:11:14;;;;;;;129.45;58.80;;;;;;;1.35;100.00;103182.63;5075084;28;20024;-67
2022/01/26 01:13:42;;;;;;;130.85;62.13;;;;;;;1.32;100.00;103185.00;5074890;28;20483;-68
2022/01/26 01:16:12;;;;;;;139.35;64.30;;;;;;;1.28;100.00;103180.34;5075320;28;20375;-68
2022/01/26 01:18:47;;;;;;;137.38;62.70;;;;;;;1.26;100.00;103174.09;5074995;28;20020;-68
2022/01/26 01:27:21;;;;;;;133.15;61.83;;;;;;;1.25;100.00;103166.16;5012693;28;20061;-68
2022/01/26 01:29:47;;;;;;;124.75;56.17;;;;;;;1.33;100.00;103162.47;5009462;28;20084;-68
2022/01/26 01:32:16;;;;;;;131.68;60.78;;;;;;;1.38;100.00;103166.31;5012599;28;20461;-68
2022/01/26 01:34:41;;;;;;;130.48;61.05;;;;;;;1.35;100.00;103161.78;5012780;28;20118;-68
2022/01/26 01:37:14;;;;;;;132.68;61.28;;;;;;;1.27;100.00;103155.06;5012825;28;20053;-68
2022/01/26 01:39:39;;;;;;;137.40;64.28;;;;;;;1.25;100.00;103158.34;5012594;28;20034;-68
2022/01/26 01:42:07;;;;;;;137.13;62.92;;;;;;;1.25;100.00;103150.50;5012536;28;20129;-71
2022/01/26 01:44:33;;;;;;;138.18;62.20;;;;;;;1.21;100.00;103155.50;5011861;28;20588;-69
2022/01/26 01:46:59;;;;;;;128.98;58.88;;;;;;;1.31;100.00;103149.31;5012444;28;20436;-71
2022/01/26 01:49:25;;;;;;;131.77;59.22;;;;;;;1.23;100.00;103147.78;5012330;28;20038;-71
2022/01/26 01:51:55;;;;;;;128.57;59.97;;;;;;;1.28;100.00;103155.97;5012492;28;20076;-70
2022/01/26 01:54:21;;;;;;;139.85;64.85;;;;;;;1.20;100.00;103164.09;5012239;28;20034;-71
2022/01/26 01:56:55;;;;;;;129.80;56.67;;;;;;;1.22;100.00;103164.19;5026166;28;20035;-71
2022/01/26 01:59:30;;;;;;;133.10;59.47;;;;;;;1.28;100.00;103158.56;5074239;28;20417;-70
2022/01/26 02:01:57;;;;;;;133.15;59.80;;;;;;;1.27;100.00;103151.53;5074131;28;20029;-70
2022/01/26 02:04:23;;;;;;;133.30;61.90;;;;;;;1.21;100.00;103147.66;5073840;28;20035;-70
2022/01/26 02:06:48;;;;;;;132.25;59.22;;;;;;;1.22;100.00;103153.78;5073782;28;20029;-70
2022/01/26 02:09:14;;;;;;;134.20;60.60;;;;;;;1.17;100.00;103144.72;5073943;28;20110;-71
2022/01/26 02:11:55;;;;;;;139.43;64.43;;;;;;;1.15;100.00;103147.19;5073561;28;20158;-71
2022/01/26 02:14:29;;;;;;;138.27;63.58;;;;;;;1.15;100.00;103141.06;5071208;28;20024;-70
2022/01/26 02:52:26;;;;;;;125.97;57.03;;;;;;;1.03;100.00;103097.63;5073167;28;20070;-71
2022/01/26 03:03:10;;;;;;;124.55;56.67;;;;;;;1.04;100.00;103078.59;5072849;28;20403;-71
2022/01/26 03:05:42;;;;;;;125.95;58.22;;;;;;;1.04;100.00;103078.59;5072873;28;20043;-70
2022/01/26 03:08:08;;;;;;;125.55;58.03;;;;;;;1.04;100.00;103086.41;5072807;28;20021;-70
2022/01/26 03:10:53;;;;;;;127.72;58.92;;;;;;;1.06;100.00;103081.31;5071280;28;20040;-71
2022/01/26 03:13:24;;;;;;;126.80;58.80;;;;;;;1.02;100.00;103085.38;5070373;28;20024;-71
2022/01/26 03:15:57;;;;;;;124.97;57.58;;;;;;;1.03;100.00;103083.69;5072820;28;20055;-71
2022/01/26 03:21:07;;;;;;;129.05;56.95;;;;;;;1.04;100.00;103073.38;5072841;28;20098;-71
2022/01/26 03:29:26;;;;;;;129.15;56.78;;;;;;;1.13;100.00;103067.06;5073077;28;20066;-71
2022/01/26 03:32:33;;;;;;;129.32;56.85;;;;;;;1.12;100.00;103070.47;5070381;28;20032;-71
2022/01/26 03:34:36;;;;;;;130.77;60.03;;;;;;;1.12;100.00;103083.50;5072677;28;20040;-71
2022/01/26 03:37:07;;;;;;;127.78;57.35;;;;;;;1.09;100.00;103080.66;5072433;28;20529;-71
2022/01/26 03:39:41;;;;;;;128.82;58.17;;;;;;;1.08;100.00;103076.22;5072478;28;20027;-70
2022/01/26 03:42:08;;;;;;;129.45;58.85;;;;;;;1.08;100.00;103076.22;5072657;28;20074;-71
2022/01/26 03:44:34;;;;;;;128.93;58.65;;;;;;;1.09;100.00;103075.44;5072612;28;20020;-68
2022/01/26 03:47:00;;;;;;;130.73;59.38;;;;;;;1.06;100.00;103075.19;5072342;28;20078;-68
2022/01/26 03:49:25;;;;;;;128.88;57.28;;;;;;;1.06;100.00;103075.19;5072377;28;20066;-69
2022/01/26 03:51:51;;;;;;;129.10;56.75;;;;;;;1.08;100.00;103066.72;5072697;28;20150;-68
2022/01/26 03:54:17;;;;;;;137.27;60.55;;;;;;;1.09;100.00;103054.59;5072319;28;20032;-68
2022/01/26 03:56:43;;;;;;;129.40;57.75;;;;;;;1.11;100.00;103053.03;5072219;28;20028;-68
2022/01/26 03:59:09;;;;;;;135.90;58.10;;;;;;;1.12;100.00;103053.16;5072321;28;20028;-68
2022/01/26 04:01:35;;;;;;;128.57;57.92;;;;;;;1.13;100.00;103070.59;5072521;28;20108;-68
2022/01/26 04:04:01;;;;;;;132.93;58.95;;;;;;;1.14;100.00;103068.91;5072657;28;20020;-68
2022/01/26 04:06:28;;;;;;;130.38;58.30;;;;;;;1.09;100.00;103068.53;5072423;28;20024;-68
2022/01/26 04:08:54;;;;;;;129.43;58.03;;;;;;;1.06;100.00;103088.22;5075294;28;20123;-68
2022/01/26 04:11:33;;;;;;;126.10;56.30;;;;;;;1.05;100.00;103076.91;5076056;28;20463;-68
2022/01/26 04:14:00;;;;;;;135.77;59.08;;;;;;;1.03;100.00;103076.78;5076353;28;20024;-68
2022/01/26 04:16:25;;;;;;;131.27;59.28;;;;;;;1.03;100.00;103075.84;5075973;28;20024;-68
2022/01/26 04:18:52;;;;;;;125.72;55.53;;;;;;;1.01;100.00;103069.63;5075910;28;20555;-68
2022/01/26 04:24:11;;;;;;;130.70;59.53;;;;;;;1.00;100.00;103063.50;5076142;28;20086;-68
2022/01/26 04:26:50;;;;;;;123.13;53.67;;;;;;;0.97;100.00;103068.47;5075723;28;20053;-68
2022/01/26 04:29:22;;;;;;;129.55;56.75;;;;;;;0.91;100.00;103069.69;5072761;28;20052;-71
2022/01/26 04:31:47;;;;;;;132.82;58.05;;;;;;;0.92;100.00;103077.63;5075542;28;20491;-71
2022/01/26 04:34:13;;;;;;;126.78;55.80;;;;;;;0.91;100.00;103078.41;5075841;28;20047;-71
2022/01/26 04:37:09;;;;;;;120.20;54.17;;;;;;;0.94;100.00;103072.53;5075373;28;20017;-71
2022/01/26 04:39:30;;;;;;;121.53;54.47;;;;;;;0.93;100.00;103076.81;5073108;28;20445;-71
2022/01/26 04:42:01;;;;;;;130.70;58.30;;;;;;;0.93;100.00;103094.16;5075543;28;20111;-69
2022/01/26 04:44:33;;;;;;;135.68;59.30;;;;;;;0.92;100.00;103095.88;5075443;28;20397;-71
2022/01/26 04:46:58;;;;;;;133.35;57.88;;;;;;;0.92;100.00;103105.34;5075747;28;20029;-71
2022/01/26 04:49:24;;;;;;;128.07;56.70;;;;;;;0.90;100.00;103115.66;5075274;28;20081;-71
2022/01/26 04:51:49;;;;;;;129.23;57.17;;;;;;;0.90;100.00;103107.84;5075289;28;20111;-71
2022/01/26 04:54:15;;;;;;;131.02;57.83;;;;;;;0.90;100.00;103113.03;5075632;28;20497;-68
2022/01/26 04:56:41;;;;;;;126.22;55.05;;;;;;;0.91;100.00;103109.66;5071261;28;20352;-69
2022/01/26 04:59:06;;;;;;;131.30;57.03;;;;;;;0.89;100.00;103100.84;5075122;28;20067;-70
2022/01/26 05:01:32;;;;;;;129.75;58.50;;;;;;;0.88;100.00;103109.41;5075612;28;20032;-71
2022/01/26 05:03:57;;;;;;;124.60;56.30;;;;;;;0.88;100.00;103112.03;5074964;28;20470;-70
2022/01/26 05:06:22;;;;;;;124.70;54.15;;;;;;;0.91;100.00;103101.84;5075096;28;20048;-70
2022/01/26 05:08:48;;;;;;;126.43;56.20;;;;;;;0.87;100.00;103097.19;5075509;28;20036;-69
2022/01/26 05:11:27;;;;;;;130.13;56.70;;;;;;;0.86;100.00;103085.88;5074874;28;20112;-71
2022/01/26 05:13:54;;;;;;;127.25;55.85;;;;;;;0.87;100.00;103091.97;5072555;28;20111;-71
2022/01/26 05:16:19;;;;;;;134.70;58.88;;;;;;;0.84;100.00;103096.94;5074875;28;20047;-69
2022/01/26 05:18:44;;;;;;;133.77;57.05;;;;;;;0.86;100.00;103095.38;5074242;28;20472;-68
2022/01/26 05:21:10;;;;;;;127.50;55.63;;;;;;;0.88;100.00;103082.47;5074432;28;20048;-68
2022/01/26 05:23:35;;;;;;;127.78;56.13;;;;;;;0.90;100.00;103066.16;5074888;28;20024;-69
2022/01/26 05:26:00;;;;;;;126.28;55.85;;;;;;;0.95;100.00;103072.66;5074506;28;20032;-68
2022/01/26 05:28:26;;;;;;;125.70;56.08;;;;;;;0.89;100.00;103063.44;5074916;28;20447;-68
2022/01/26 05:30:51;;;;;;;132.85;58.47;;;;;;;0.88;100.00;103056.44;5074737;28;20428;-68
2022/01/26 05:33:16;;;;;;;135.95;58.28;;;;;;;0.89;100.00;103053.94;5074384;28;20475;-68
2022/01/26 05:35:42;;;;;;;123.35;54.72;;;;;;;0.88;100.00;103059.94;5074683;28;20407;-68
2022/01/26 05:38:08;;;;;;;128.38;55.03;;;;;;;0.89;100.00;103053.94;5073620;28;20047;-68
2022/01/26 05:40:33;;;;;;;125.85;56.40;;;;;;;0.88;100.00;103075.56;5074390;28;20028;-68
2022/01/26 05:42:59;;;;;;;129.40;56.70;;;;;;;0.86;100.00;103064.13;5074555;28;20043;-68
2022/01/26 05:45:36;;;;;;;134.70;59.85;;;;;;;0.86;100.00;103058.91;5074578;28;20017;-68
2022/01/26 05:48:03;;;;;;;125.97;54.85;;;;;;;0.92;100.00;103056.78;5073987;28;20035;-68
2022/01/26 05:50:31;;;;;;;127.32;55.88;;;;;;;0.93;100.00;103058.59;5074406;28;20051;-68
2022/01/26 05:52:57;;;;;;;131.35;58.83;;;;;;;0.86;100.00;103059.81;5074574;28;20024;-68
2022/01/26 05:55:22;;;;;;;130.80;57.47;;;;;;;0.92;100.00;103059.41;5074082;28;20032;-68
2022/01/26 05:57:47;;;;;;;133.43;58.47;;;;;;;0.94;100.00;103052.59;5073931;28;20032;-68
2022/01/26 06:00:13;;;;;;;124.65;56.17;;;;;;;0.93;100.00;103060.28;5074183;28;20021;-68
2022/01/26 06:02:38;;;;;;;130.82;58.78;;;;;;;0.95;100.00;103044.00;5073795;28;20086;-68
2022/01/26 06:05:04;;;;;;;132.38;60.10;;;;;;;0.90;100.00;103045.31;5074134;28;20027;-68
2022/01/26 06:07:29;;;;;;;129.95;57.83;;;;;;;0.90;100.00;103040.13;5073754;28;20085;-68
2022/01/26 06:09:55;;;;;;;130.65;56.83;;;;;;;0.93;100.00;103048.16;5073781;28;20474;-68
2022/01/26 06:12:20;;;;;;;132.93;58.45;;;;;;;0.93;100.00;103044.66;5073783;28;20033;-68
2022/01/26 06:14:45;;;;;;;133.50;58.38;;;;;;;0.89;100.00;103045.22;5073705;28;20033;-68
2022/01/26 06:17:11;;;;;;;131.93;57.15;;;;;;;0.89;100.00;103060.84;5069526;28;20020;-68
2022/01/26 06:19:36;;;;;;;138.55;60.92;;;;;;;0.89;100.00;103053.03;5073971;28;20486;-68
2022/01/26 06:22:02;;;;;;;140.98;60.65;;;;;;;0.87;100.00;103065.94;5073525;28;20028;-68
2022/01/26 06:24:27;;;;;;;135.02;60.38;;;;;;;0.86;100.00;103064.13;5073703;28;20095;-68
2022/01/26 06:26:52;;;;;;;127.53;56.33;;;;;;;0.85;100.00;103059.69;5073509;28;20056;-68
2022/01/26 06:29:17;;;;;;;129.18;56.15;;;;;;;0.85;100.00;103051.88;5073404;28;20029;-68
2022/01/26 06:31:43;;;;;;;136.43;60.90;;;;;;;0.87;100.00;103045.09;5073096;28;20052;-68
2022/01/26 06:34:12;;;;;;;143.52;62.55;;;;;;;0.88;100.00;103039.09;5073397;28;20378;-68
2022/01/26 06:36:44;;;;;;;130.05;58.15;;;;;;;0.84;100.00;103045.75;5072668;28;20039;-70
2022/01/26 06:39:14;;;;;;;134.15;59.08;;;;;;;0.87;100.00;103039.88;5073733;28;20367;-70
2022/01/26 06:41:47;;;;;;;136.70;59.30;;;;;;;0.88;100.00;103046.03;5077314;28;20012;-71
2022/01/26 06:44:45;;;;;;;133.75;60.22;;;;;;;0.89;100.00;103050.41;5070560;28;20024;-71
2022/01/26 06:49:38;;;;;;;137.93;61.70;;;;;;;0.84;100.00;103060.47;5075510;28;20025;-72
2022/01/26 06:52:03;;;;;;;141.95;62.45;;;;;;;0.88;100.00;103065.16;5070424;28;20471;-73
2022/01/26 06:54:29;;;;;;;143.23;63.67;;;;;;;0.86;100.00;103066.75;5075268;28;20062;-72
2022/01/26 06:56:55;;;;;;;138.55;60.90;;;;;;;0.87;100.00;103076.34;5069246;28;20025;-72
2022/01/26 06:59:21;;;;;;;146.68;63.80;;;;;;;0.92;100.00;103054.19;5071193;28;20031;-71
2022/01/26 07:01:47;;;;;;;145.60;65.28;;;;;;;0.88;100.00;103044.31;5074773;28;20506;-73
2022/01/26 07:04:13;;;;;;;148.15;65.82;;;;;;;0.93;100.00;103055.09;5068993;28;20030;-73
2022/01/26 07:06:38;;;;;;;145.27;64.95;;;;;;;0.90;100.00;103053.13;5073822;28;20473;-73
2022/01/26 07:09:03;;;;;;;145.65;64.47;;;;;;;0.89;100.00;103046.13;5076588;28;20107;-73
2022/01/26 07:11:29;;;;;;;146.35;65.20;;;;;;;0.93;100.00;103055.09;5066813;28;20471;-73
2022/01/26 07:13:58;;;;;;;146.73;65.07;;;;;;;0.93;100.00;103042.97;5073796;28;20028;-72
2022/01/26 07:21:51;;;;;;;145.00;66.13;;;;;;;0.95;100.00;103069.16;5065993;28;20063;-71
2022/01/26 07:24:16;;;;;;;157.82;68.70;;;;;;;0.93;100.00;103075.94;5071549;28;20048;-70
2022/01/26 07:26:43;;;;;;;147.18;65.63;;;;;;;0.93;100.00;103092.44;5067314;28;20036;-70
2022/01/26 07:29:12;;;;;;;161.18;67.70;;;;;;;0.94;100.00;103103.78;5068226;28;20028;-69
2022/01/26 07:31:42;;;;;;;158.32;67.68;;;;;;;0.92;100.00;103082.84;5065848;28;20033;-68
2022/01/26 07:34:10;;;;;;;155.45;64.70;;;;;;;0.93;100.00;103079.41;5064910;28;20028;-70
2022/01/26 07:36:36;;;;;;;159.52;65.50;;;;;;;0.94;100.00;103086.47;5066046;28;20111;-70
2022/01/26 07:39:10;;;;;;;163.20;67.97;;;;;;;0.91;100.00;103075.81;5070907;28;20019;-70
2022/01/26 07:41:35;;;;;;;163.70;69.10;;;;;;;0.91;100.00;103074.91;5072478;28;20365;-69
2022/01/26 07:44:01;;;;;;;163.50;66.32;;;;;;;0.91;100.00;103075.81;5069800;28;20038;-70
2022/01/26 07:46:27;;;;;;;162.13;67.68;;;;;;;0.92;100.00;103067.22;5073318;28;20021;-69
2022/01/26 07:48:53;;;;;;;166.57;69.75;;;;;;;0.90;100.00;103081.78;5074796;28;20024;-70
2022/01/26 07:51:19;;;;;;;162.63;68.35;;;;;;;0.94;100.00;103076.03;5074502;28;20082;-69
2022/01/26 07:53:45;;;;;;;168.55;71.47;;;;;;;0.93;100.00;103074.22;5074133;28;20437;-68
2022/01/26 07:56:10;;;;;;;168.25;69.63;;;;;;;0.91;100.00;103072.31;5078264;28;20032;-68
2022/01/26 07:58:36;;;;;;;175.15;71.80;;;;;;;0.90;100.00;103071.38;5074084;28;20055;-69
2022/01/26 08:01:01;;;;;;;168.95;68.07;;;;;;;0.95;100.00;103087.41;5078773;28;20035;-70
2022/01/26 08:03:33;;;;;;;167.75;69.70;;;;;;;0.95;100.00;103105.63;5074604;28;20065;-69
2022/01/26 08:05:58;;;;;;;177.82;70.82;;;;;;;0.91;100.00;103120.09;5073266;28;20024;-69
2022/01/26 08:08:23;;;;;;;171.85;71.28;;;;;;;0.91;100.00;103108.78;5076278;28;20047;-69
2022/01/26 08:10:50;;;;;;;171.45;70.10;;;;;;;0.91;100.00;103098.34;5069871;28;20398;-69
2022/01/26 08:13:15;;;;;;;175.38;68.68;;;;;;;0.90;100.00;103105.22;5080239;28;20365;-69
2022/01/26 08:15:40;;;;;;;180.88;71.85;;;;;;;0.90;100.00;103097.41;5070175;28;20028;-69
2022/01/26 08:18:06;;;;;;;185.57;74.20;;;;;;;0.94;100.00;103112.50;5076174;28;20033;-69
2022/01/26 08:20:33;;;;;;;171.82;66.25;;;;;;;0.94;100.00;103112.50;5076117;28;20017;-69
2022/01/26 08:22:58;;;;;;;168.20;66.35;;;;;;;0.97;100.00;103114.47;5075846;28;20478;-69
2022/01/26 08:25:24;;;;;;;177.15;69.88;;;;;;;0.96;100.00;103110.97;5075604;28;20039;-69
2022/01/26 08:28:03;;;;;;;182.98;72.32;;;;;;;0.96;100.00;103105.75;5071947;28;20040;-68
2022/01/26 08:30:29;;;;;;;172.55;68.55;;;;;;;0.98;100.00;103100.66;5074537;28;20052;-69
2022/01/26 08:32:54;;;;;;;171.50;67.82;;;;;;;0.99;100.00;103097.25;5075276;28;20025;-68
2022/01/26 08:35:19;;;;;;;175.93;69.07;;;;;;;0.98;100.00;103098.06;5075353;28;20021;-68
2022/01/26 08:37:45;;;;;;;177.32;67.38;;;;;;;0.98;100.00;103106.75;5075134;28;20456;-69
2022/01/26 08:40:10;;;;;;;173.50;69.18;;;;;;;1.01;100.00;103104.41;5075751;28;20022;-69
2022/01/26 08:42:37;;;;;;;172.95;67.88;;;;;;;1.03;100.00;103105.44;5075834;28;20555;-68
2022/01/26 08:45:04;;;;;;;170.52;67.35;;;;;;;1.02;100.00;103098.41;5075336;28;20021;-68
2022/01/26 08:47:29;;;;;;;177.65;69.65;;;;;;;0.96;100.00;103110.03;5075323;28;20028;-69
2022/01/26 08:49:54;;;;;;;171.30;69.22;;;;;;;1.01;100.00;103109.59;5075895;28;20020;-68
2022/01/26 08:52:20;;;;;;;174.50;67.43;;;;;;;0.98;100.00;103109.38;5075241;28;20467;-69
2022/01/26 08:54:45;;;;;;;184.80;70.35;;;;;;;0.99;100.00;103112.88;5075410;28;20025;-69
2022/01/26 08:57:10;;;;;;;177.75;71.53;;;;;;;1.01;100.00;103111.31;5075343;28;20364;-68
2022/01/26 08:59:36;;;;;;;170.73;66.55;;;;;;;1.02;100.00;103119.25;5075112;28;20035;-68
2022/01/26 09:15:12;;;;;;;139.80;61.13;;;;;;;1.30;100.00;103107.50;5070000;27;1244116;-73
2022/01/26 09:17:38;;;;;;;138.50;60.88;;;;;;;1.31;100.00;103105.00;5089823;28;20029;-71
2022/01/26 09:20:06;;;;;;;135.32;59.17;;;;;;;1.32;100.00;103109.41;5090035;28;20074;-72
2022/01/26 09:22:31;;;;;;;137.40;59.30;;;;;;;1.35;100.00;103112.25;5089688;28;20028;-75
2022/01/26 09:24:57;;;;;;;141.65;60.78;;;;;;;1.36;100.00;103110.56;5089935;28;20028;-69
2022/01/26 09:27:22;;;;;;;141.32;62.00;;;;;;;1.36;100.00;103116.69;5089881;28;20115;-78
2022/01/26 09:29:48;;;;;;;139.05;59.28;;;;;;;1.38;100.00;103127.22;5089967;28;20020;-72
2022/01/26 09:32:15;;;;;;;141.68;60.95;;;;;;;1.37;100.00;103120.22;5089989;28;20195;-69
2022/01/26 09:34:41;;;;;;;142.32;61.30;;;;;;;1.38;100.00;103130.78;5089819;28;20028;-80
2022/01/26 09:37:12;;;;;;;135.40;61.53;;;;;;;1.38;100.00;103122.94;5089733;28;20028;-78
2022/01/26 09:39:40;;;;;;;136.88;58.05;;;;;;;1.42;100.00;103121.47;5089806;28;20020;-66
2022/01/26 09:42:06;;;;;;;136.43;59.50;;;;;;;1.44;100.00;103117.28;5089584;28;20025;-68
2022/01/26 09:44:32;;;;;;;128.52;57.33;;;;;;;1.47;100.00;103107.13;5089625;28;20072;-68
2022/01/26 09:46:59;;;;;;;135.93;60.03;;;;;;;1.49;100.00;103102.00;5089543;28;20062;-70
2022/01/26 09:49:31;;;;;;;122.03;54.80;;;;;;;1.55;100.00;103100.78;5085349;28;20020;-77
2022/01/26 09:51:59;;;;;;;126.90;59.08;;;;;;;1.55;100.00;103097.25;5076016;28;20020;-73
2022/01/26 09:54:30;;;;;;;133.15;58.88;;;;;;;1.56;100.00;103086.06;5085343;28;20458;-71
2022/01/26 09:57:00;;;;;;;117.50;55.95;;;;;;;1.63;100.00;103084.81;5085554;28;20414;-69
2022/01/26 09:59:26;;;;;;;123.50;56.78;;;;;;;1.61;100.00;103086.41;5085562;28;20024;-68
2022/01/26 10:01:51;;;;;;;114.18;55.13;;;;;;;1.62;100.00;103086.53;5089615;28;20024;-70
2022/01/26 10:04:23;;;;;;;117.90;55.10;;;;;;;1.64;100.00;103092.75;5084717;28;20066;-80
2022/01/26 10:07:15;;;;;;;109.40;53.92;;;;;;;1.71;100.00;103088.91;5078117;28;20036;-78
2022/01/26 10:17:36;;;;;;;103.15;52.05;;;;;;;1.71;100.00;103091.53;5064801;28;20072;-69
2022/01/26 10:20:05;;;;;;;99.45;52.58;;;;;;;1.75;100.00;103093.59;5066789;28;20451;-70
2022/01/26 10:22:33;;;;;;;102.88;52.78;;;;;;;1.78;100.00;103090.28;5063641;28;20033;-76
2022/01/26 10:25:18;;;;;;;100.03;51.60;;;;;;;1.78;100.00;103092.88;5067190;28;20021;-76
2022/01/26 10:27:50;;;;;;;101.38;52.08;;;;;;;1.80;100.00;103073.06;5065604;28;20479;-70
2022/01/26 10:30:18;;;;;;;94.55;51.70;;;;;;;1.80;100.00;103066.13;5064840;28;20047;-79
2022/01/26 10:32:45;;;;;;;93.88;50.72;;;;;;;1.79;100.00;103066.94;5065400;28;20033;-76
2022/01/26 10:35:13;;;;;;;96.30;50.67;;;;;;;1.82;100.00;103079.28;5065138;28;20024;-79
2022/01/26 10:37:47;;;;;;;97.78;49.15;;;;;;;1.82;100.00;103080.22;5064701;28;20104;-78
2022/01/26 10:40:17;;;;;;;93.90;49.92;;;;;;;1.82;100.00;103087.13;5064647;28;20032;-77
2022/01/26 10:43:14;;;;;;;93.07;49.45;;;;;;;1.84;100.00;103122.97;5047488;28;20068;-72
2022/01/26 10:45:47;;;;;;;98.18;52.40;;;;;;;1.85;100.00;103136.91;5064830;28;20029;-67
2022/01/26 10:48:30;;;;;;;98.20;52.33;;;;;;;1.81;100.00;103147.94;5064581;28;20532;-66
2022/01/26 10:53:53;;;;;;;98.72;52.60;;;;;;;1.81;100.00;103134.88;5065134;28;20120;-77
2022/01/26 10:56:18;;;;;;;100.60;54.25;;;;;;;1.80;100.00;103127.84;5063799;28;20054;-71
2022/01/26 10:58:44;;;;;;;97.18;52.35;;;;;;;1.83;100.00;103122.84;5065368;28;20031;-70
2022/01/26 11:01:09;;;;;;;98.95;52.58;;;;;;;1.81;100.00;103121.84;5065215;28;20052;-70
2022/01/26 11:03:34;;;;;;;98.65;52.47;;;;;;;1.81;100.00;103117.53;5063418;28;20028;-67
2022/01/26 11:06:08;;;;;;;96.10;50.28;;;;;;;1.85;100.00;103110.81;5066330;28;20025;-70
2022/01/26 11:08:40;;;;;;;107.47;54.78;;;;;;;1.84;100.00;103114.25;5063224;28;20108;-76
2022/01/26 11:11:06;;;;;;;108.47;55.08;;;;;;;1.85;100.00;103111.75;5065256;28;20029;-66
2022/01/26 11:13:36;;;;;;;99.53;53.13;;;;;;;1.84;100.00;103114.25;5062824;28;20056;-70
2022/01/26 11:16:09;;;;;;;101.57;52.42;;;;;;;1.83;100.00;103110.72;5065649;28;20066;-67
2022/01/26 11:18:51;;;;;;;105.43;54.35;;;;;;;1.82;100.00;103107.97;5063377;28;20055;-67
2022/01/26 11:21:33;;;;;;;106.43;53.38;;;;;;;1.83;100.00;103109.81;5063526;28;20455;-70
2022/01/26 11:24:20;;;;;;;103.65;52.28;;;;;;;1.84;100.00;103096.88;5062534;28;20039;-72
2022/01/26 11:26:48;;;;;;;107.63;53.88;;;;;;;1.85;100.00;103100.38;5063614;28;20033;-71
2022/01/26 11:29:32;;;;;;;102.57;53.10;;;;;;;1.91;100.00;103106.09;5045638;28;20044;-71
2022/01/26 11:32:08;;;;;;;106.32;53.05;;;;;;;1.94;100.00;103097.56;5062692;28;20028;-68
2022/01/26 11:34:35;;;;;;;102.22;51.38;;;;;;;1.98;100.00;103102.22;5062788;28;20060;-70
2022/01/26 11:37:03;;;;;;;100.80;51.80;;;;;;;1.98;100.00;103097.94;5065864;28;20158;-70
2022/01/26 11:45:10;;;;;;;105.60;53.22;;;;;;;2.12;100.00;103085.00;5062011;28;20041;-66
2022/01/26 11:47:42;;;;;;;91.50;47.55;;;;;;;2.14;100.00;103070.38;5062385;28;20025;-74
2022/01/26 11:50:19;;;;;;;100.05;50.15;;;;;;;2.14;100.00;103065.16;5064491;28;20071;-72
2022/01/26 11:52:57;;;;;;;95.85;48.72;;;;;;;2.17;100.00;103067.97;5064012;28;20035;-72
2022/01/26 11:55:36;;;;;;;94.35;49.97;;;;;;;2.22;100.00;103071.84;5062120;28;20040;-73
2022/01/26 11:58:09;;;;;;;100.07;50.90;;;;;;;2.22;100.00;103072.75;5061761;28;20071;-81
2022/01/26 12:00:55;;;;;;;106.50;52.95;;;;;;;2.25;100.00;103072.06;5064513;28;20029;-79
2022/01/26 12:03:25;;;;;;;90.25;47.70;;;;;;;2.25;100.00;103059.91;5064408;28;20046;-73
2022/01/26 12:05:55;;;;;;;94.85;49.15;;;;;;;2.21;100.00;103059.59;5062371;28;20025;-79
2022/01/26 12:08:35;;;;;;;98.60;50.65;;;;;;;2.17;100.00;103066.28;5064341;28;20039;-72
2022/01/26 12:11:03;;;;;;;94.35;49.88;;;;;;;2.21;100.00;103057.91;5061661;28;20017;-69
2022/01/26 12:13:30;;;;;;;103.43;51.50;;;;;;;2.21;100.00;103056.97;5064867;28;20047;-80
2022/01/26 12:16:22;;;;;;;100.43;50.10;;;;;;;2.25;100.00;103053.81;5047202;28;20081;-82
2022/01/26 12:35:09;;;;;;;98.43;49.88;;;;;;;2.23;100.00;103058.00;5064159;28;20067;-80
2022/01/26 12:37:51;;;;;;;104.10;52.15;;;;;;;2.30;100.00;103067.19;5061451;28;20021;-82
2022/01/26 12:43:47;;;;;;;90.45;47.20;;;;;;;2.44;100.00;103059.56;5061181;28;20913;-82
2022/01/26 12:46:16;;;;;;;98.00;51.72;;;;;;;2.30;100.00;103062.91;5062860;28;20059;-81
2022/01/26 12:48:48;;;;;;;93.70;49.35;;;;;;;2.34;100.00;103069.22;5062534;28;20032;-82
2022/01/26 12:51:14;;;;;;;91.93;48.90;;;;;;;2.32;100.00;103061.28;5062770;28;20025;-76
2022/01/26 12:53:40;;;;;;;95.68;50.40;;;;;;;2.34;100.00;103067.53;5062017;28;20029;-82
2022/01/26 12:56:13;;;;;;;89.28;46.92;;;;;;;2.42;100.00;103063.78;5061634;28;20031;-82
2022/01/26 12:58:40;;;;;;;93.10;50.30;;;;;;;2.40;100.00;103057.53;5071978;28;20463;-84
2022/01/26 13:01:19;;;;;;;92.10;49.25;;;;;;;2.44;100.00;103072.63;5068236;28;20478;-85
2022/01/26 13:03:48;;;;;;;94.75;48.78;;;;;;;2.45;100.00;103057.88;5065592;28;20542;-85
2022/01/26 13:06:23;;;;;;;89.50;48.47;;;;;;;2.42;100.00;103045.50;5073353;28;20074;-86
2022/01/26 13:08:56;;;;;;;93.75;49.85;;;;;;;2.50;100.00;103055.59;5075284;28;20482;-86
2022/01/26 13:11:28;;;;;;;90.97;47.08;;;;;;;2.50;100.00;103040.81;5074177;28;20063;-87
2022/01/26 13:14:02;;;;;;;86.30;46.90;;;;;;;2.54;100.00;103036.75;5072502;28;20033;-77
2022/01/26 13:16:35;;;;;;;88.88;47.33;;;;;;;2.51;100.00;103026.09;5075327;28;20032;-86
2022/01/26 13:19:16;;;;;;;;;;;;;;;2.55;100.00;103023.81;5071499;28;20471;-85
2022/01/26 13:24:36;;;;;;;89.97;48.40;;;;;;;2.58;100.00;103030.97;5062690;28;20491;-86
2022/01/26 13:30:09;;;;;;;93.78;49.45;;;;;;;2.49;100.00;103025.03;5061997;28;20082;-87